createdAt,value
2023-02-01T00:03:14.066Z,4.81
2023-02-01T00:08:15.776Z,4.79
2023-02-01T00:13:17.594Z,4.79
2023-02-01T00:18:19.445Z,4.80
2023-02-01T00:23:21.324Z,4.79
2023-02-01T00:28:23.241Z,4.78
2023-02-01T00:33:25.454Z,4.76
2023-02-01T00:38:28.775Z,4.73
2023-02-01T00:43:33.183Z,4.74
2023-02-01T00:48:35.100Z,4.73
2023-02-01T00:53:37.781Z,4.74
2023-02-01T00:58:41.304Z,4.74
2023-02-01T01:03:46.055Z,4.74
2023-02-01T01:08:48.175Z,4.75
2023-02-01T01:13:51.739Z,4.75
2023-02-01T01:18:54.922Z,4.74
2023-02-01T01:23:56.989Z,4.71
2023-02-01T01:29:00.227Z,4.69
2023-02-01T01:34:02.192Z,4.70
2023-02-01T01:39:05.489Z,4.70
2023-02-01T01:44:46.130Z,4.68
2023-02-01T01:49:48.303Z,4.65
2023-02-01T01:54:53.481Z,4.63
2023-02-01T02:00:14.112Z,4.62
2023-02-01T02:05:19.055Z,4.59
2023-02-01T02:10:21.122Z,4.59
2023-02-01T02:15:23.696Z,4.58
2023-02-01T02:20:54.754Z,4.59
2023-02-01T02:26:21.105Z,4.59
2023-02-01T02:31:42.310Z,4.60
2023-02-01T02:36:44.171Z,4.58
2023-02-01T02:42:13.053Z,4.59
2023-02-01T02:47:26.317Z,4.57
2023-02-01T02:52:47.777Z,4.55
2023-02-01T02:58:10.488Z,4.54
2023-02-01T03:03:31.024Z,4.54
2023-02-01T03:08:33.419Z,4.53
2023-02-01T03:13:57.045Z,4.54
2023-02-01T03:19:00.779Z,4.55
2023-02-01T03:24:18.347Z,4.55
2023-02-01T03:29:28.550Z,4.57
2023-02-01T03:34:30.781Z,4.57
2023-02-01T03:39:39.686Z,4.58
2023-02-01T03:44:59.065Z,4.57
2023-02-01T03:50:05.967Z,4.57
2023-02-01T03:55:09.659Z,4.59
2023-02-01T04:00:23.397Z,4.60
2023-02-01T04:05:25.956Z,4.61
2023-02-01T04:10:33.017Z,4.63
2023-02-01T04:15:35.999Z,4.64
2023-02-01T04:20:38.044Z,4.64
2023-02-01T04:25:39.764Z,4.66
2023-02-01T04:30:41.573Z,4.66
2023-02-01T04:35:43.457Z,4.67
2023-02-01T04:40:48.434Z,4.66
2023-02-01T04:45:50.662Z,4.65
2023-02-01T04:50:52.438Z,4.64
2023-02-01T04:55:55.126Z,4.65
2023-02-01T05:00:57.068Z,4.66
2023-02-01T05:05:58.928Z,4.65
2023-02-01T05:11:03.661Z,4.66
2023-02-01T05:16:06.079Z,4.66
2023-02-01T05:21:08.379Z,4.67
2023-02-01T05:26:10.247Z,4.67
2023-02-01T05:31:12.752Z,4.67
2023-02-01T05:36:15.044Z,4.67
2023-02-01T05:41:16.846Z,4.68
2023-02-01T05:46:18.677Z,4.68
2023-02-01T05:51:20.600Z,4.70
2023-02-01T05:56:22.802Z,4.71
2023-02-01T06:01:24.683Z,4.72
2023-02-01T06:06:26.557Z,4.72
2023-02-01T06:11:33.068Z,4.73
2023-02-01T06:16:35.244Z,4.73
2023-02-01T06:21:37.877Z,4.71
2023-02-01T06:26:40.869Z,4.73
2023-02-01T06:31:43.898Z,4.73
2023-02-01T06:36:45.870Z,4.73
2023-02-01T06:41:49.621Z,4.74
2023-02-01T06:46:51.468Z,4.75
2023-02-01T06:51:53.580Z,4.75
2023-02-01T06:56:55.709Z,4.72
2023-02-01T07:01:57.984Z,4.73
2023-02-01T07:06:59.727Z,4.71
2023-02-01T07:12:01.539Z,4.71
2023-02-01T07:17:03.770Z,4.69
2023-02-01T07:22:05.669Z,4.66
2023-02-01T07:27:07.507Z,4.62
2023-02-01T07:32:09.618Z,4.52
2023-02-01T07:37:11.796Z,4.47
2023-02-01T07:42:13.683Z,4.43
2023-02-01T07:47:15.885Z,4.41
2023-02-01T07:52:18.047Z,4.38
2023-02-01T07:57:20.832Z,4.37
2023-02-01T08:02:22.868Z,4.37
2023-02-01T08:07:24.643Z,4.37
2023-02-01T08:12:26.805Z,4.39
2023-02-01T08:17:29.549Z,4.40
2023-02-01T08:22:34.349Z,4.42
2023-02-01T08:27:36.605Z,4.42
2023-02-01T08:32:38.366Z,4.39
2023-02-01T08:37:40.169Z,4.41
2023-02-01T08:42:54.816Z,4.46
2023-02-01T08:47:57.911Z,4.51
2023-02-01T08:52:59.777Z,4.58
2023-02-01T08:58:01.597Z,4.61
2023-02-01T09:03:03.805Z,4.66
2023-02-01T09:08:07.097Z,4.69
2023-02-01T09:13:10.030Z,4.71
2023-02-01T09:18:12.109Z,4.74
2023-02-01T09:23:14.045Z,4.76
2023-02-01T09:28:15.816Z,4.78
2023-02-01T09:33:18.801Z,4.79
2023-02-01T09:38:20.706Z,4.77
2023-02-01T09:43:51.683Z,4.76
2023-02-01T09:49:01.985Z,4.71
2023-02-01T09:54:30.798Z,4.62
2023-02-01T09:59:59.381Z,4.46
2023-02-01T10:05:02.130Z,4.30
2023-02-01T10:10:43.076Z,4.15
2023-02-01T10:16:26.909Z,4.05
2023-02-01T10:22:05.640Z,3.94
2023-02-01T10:27:07.466Z,3.90
2023-02-01T10:32:22.990Z,3.92
2023-02-01T10:37:29.617Z,3.94
2023-02-01T10:42:32.373Z,3.97
2023-02-01T10:47:34.185Z,3.98
2023-02-01T10:52:54.003Z,4.03
2023-02-01T10:58:01.081Z,4.08
2023-02-01T11:03:31.722Z,4.20
2023-02-01T11:08:33.640Z,4.31
2023-02-01T11:13:40.498Z,4.39
2023-02-01T11:18:42.936Z,4.46
2023-02-01T11:23:46.620Z,4.52
2023-02-01T11:28:55.377Z,4.59
2023-02-01T11:34:07.260Z,4.64
2023-02-01T11:39:31.162Z,4.72
2023-02-01T11:44:39.258Z,4.77
2023-02-01T11:49:41.074Z,4.80
2023-02-01T11:55:05.989Z,4.90
2023-02-01T12:00:35.961Z,4.94
2023-02-01T12:05:55.818Z,4.97
2023-02-01T12:11:34.532Z,5.01
2023-02-01T12:16:57.550Z,5.03
2023-02-01T12:22:08.210Z,5.01
2023-02-01T12:27:10.184Z,5.00
2023-02-01T12:32:40.397Z,5.01
2023-02-01T12:38:03.743Z,4.99
2023-02-01T12:43:22.698Z,4.98
2023-02-01T12:48:34.927Z,5.03
2023-02-01T12:53:56.973Z,5.08
2023-02-01T12:59:03.696Z,5.10
2023-02-01T13:04:45.793Z,5.19
2023-02-01T13:10:02.021Z,5.22
2023-02-01T13:15:15.950Z,5.25
2023-02-01T13:20:25.997Z,5.29
2023-02-01T13:25:44.947Z,5.35
2023-02-01T13:30:55.567Z,5.39
2023-02-01T13:36:31.574Z,5.43
2023-02-01T13:41:41.063Z,5.44
2023-02-01T13:46:46.583Z,5.45
2023-02-01T13:51:52.341Z,5.48
2023-02-01T13:56:55.138Z,5.49
2023-02-01T14:01:56.895Z,5.51
2023-02-01T14:06:59.333Z,5.52
2023-02-01T14:12:39.889Z,5.52
2023-02-01T14:17:42.468Z,5.53
2023-02-01T14:22:44.389Z,5.51
2023-02-01T14:27:46.333Z,5.52
2023-02-01T14:32:48.276Z,5.53
2023-02-01T14:37:54.769Z,5.52
2023-02-01T14:42:58.199Z,5.49
2023-02-01T14:48:06.283Z,5.48
2023-02-01T14:53:11.259Z,5.46
2023-02-01T14:58:40.614Z,5.46
2023-02-01T15:04:08.257Z,5.46
2023-02-01T15:09:15.457Z,5.45
2023-02-01T15:14:17.311Z,5.44
2023-02-01T15:19:19.160Z,5.41
2023-02-01T15:24:30.076Z,5.35
2023-02-01T15:29:34.526Z,5.29
2023-02-01T15:34:50.890Z,5.22
2023-02-01T15:40:10.853Z,5.20
2023-02-01T15:45:21.326Z,5.16
2023-02-01T15:50:25.360Z,5.13
2023-02-01T15:55:43.806Z,5.09
2023-02-01T16:00:50.158Z,5.04
2023-02-01T16:06:01.138Z,4.99
2023-02-01T16:11:26.733Z,4.85
2023-02-01T16:16:30.016Z,4.67
2023-02-01T16:21:31.868Z,4.54
2023-02-01T16:26:35.263Z,4.46
2023-02-01T16:31:40.652Z,4.40
2023-02-01T16:36:42.708Z,4.39
2023-02-01T16:41:46.302Z,4.38
2023-02-01T16:46:49.651Z,4.39
2023-02-01T16:51:57.463Z,4.40
2023-02-01T16:56:59.274Z,4.39
2023-02-01T17:02:01.169Z,4.36
2023-02-01T17:07:09.848Z,4.30
2023-02-01T17:12:28.252Z,4.20
2023-02-01T17:17:39.712Z,4.00
2023-02-01T17:22:41.668Z,3.77
2023-02-01T17:27:45.366Z,3.63
2023-02-01T17:32:47.197Z,3.53
2023-02-01T17:37:50.057Z,3.45
2023-02-01T17:42:52.711Z,3.44
2023-02-01T17:47:57.312Z,3.43
2023-02-01T17:52:59.365Z,3.45
2023-02-01T17:58:01.136Z,3.49
2023-02-01T18:03:03.360Z,3.52
2023-02-01T18:08:05.395Z,3.53
2023-02-01T18:13:07.171Z,3.55
2023-02-01T18:18:09.093Z,3.55
2023-02-01T18:23:24.189Z,3.54
2023-02-01T18:28:26.047Z,3.54
2023-02-01T18:33:27.867Z,3.54
2023-02-01T18:38:29.703Z,3.56
2023-02-01T18:43:31.516Z,3.52
2023-02-01T18:48:33.470Z,3.49
2023-02-01T18:53:35.247Z,3.46
2023-02-01T18:58:37.006Z,3.45
2023-02-01T19:03:42.299Z,3.45
2023-02-01T19:08:51.459Z,3.44
2023-02-01T19:13:54.867Z,3.42
2023-02-01T19:18:56.703Z,3.43
2023-02-01T19:23:58.767Z,3.44
2023-02-01T19:29:00.722Z,3.43
2023-02-01T19:34:02.825Z,3.45
2023-02-01T19:39:04.712Z,3.47
2023-02-01T19:44:06.624Z,3.50
2023-02-01T19:49:12.155Z,3.51
2023-02-01T19:54:15.645Z,3.53
2023-02-01T19:59:18.895Z,3.56
2023-02-01T20:04:21.058Z,3.58
2023-02-01T20:09:25.404Z,3.59
2023-02-01T20:14:27.365Z,3.63
2023-02-01T20:19:30.067Z,3.65
2023-02-01T20:24:31.874Z,3.67
2023-02-01T20:29:34.779Z,3.70
2023-02-01T20:34:36.789Z,3.73
2023-02-01T20:39:38.609Z,3.72
2023-02-01T20:44:40.401Z,3.67
2023-02-01T20:49:42.290Z,3.65
2023-02-01T20:54:44.191Z,3.63
2023-02-01T20:59:47.301Z,3.65
2023-02-01T21:04:51.498Z,3.66
2023-02-01T21:09:54.859Z,3.68
2023-02-01T21:14:57.853Z,3.70
2023-02-01T21:20:01.608Z,3.72
2023-02-01T21:25:06.412Z,3.70
2023-02-01T21:30:12.191Z,3.69
2023-02-01T21:35:14.202Z,3.68
2023-02-01T21:40:16.446Z,3.67
2023-02-01T21:45:18.521Z,3.68
2023-02-01T21:50:21.549Z,3.68
2023-02-01T21:55:23.501Z,3.67
2023-02-01T22:00:25.529Z,3.67
2023-02-01T22:05:27.446Z,3.69
2023-02-01T22:10:29.331Z,3.68
2023-02-01T22:15:31.095Z,3.66
2023-02-01T22:20:32.992Z,3.63
2023-02-01T22:25:35.288Z,3.62
2023-02-01T22:30:37.202Z,3.63
2023-02-01T22:35:39.037Z,3.63
2023-02-01T22:40:40.820Z,3.65
2023-02-01T22:45:42.666Z,3.68
2023-02-01T22:50:45.724Z,3.70
2023-02-01T22:55:47.533Z,3.69
2023-02-01T23:00:49.387Z,3.68
2023-02-01T23:05:51.160Z,3.69
2023-02-01T23:10:59.402Z,3.70
2023-02-01T23:16:06.239Z,3.67
2023-02-01T23:21:11.474Z,3.67
2023-02-01T23:26:13.331Z,3.66
2023-02-01T23:31:17.525Z,3.66
2023-02-01T23:36:22.728Z,3.66
2023-02-01T23:41:28.623Z,3.66
2023-02-01T23:46:41.734Z,3.66
2023-02-01T23:51:48.184Z,3.64
2023-02-01T23:56:50.057Z,3.65
